Time,TemperatureF,DewpointF,PressureIn,WindDirection,WindDirectionDegrees,WindSpeedMPH,WindSpeedGustMPH,Humidity,HourlyPrecipIn,Conditions,Clouds,dailyrainin,SoftwareType,DateUTC
2013-02-05 00:00:00,20.5,18.9,29.90,East,83,0.0,0.0,93,0.00,,,0.01,meteohub,2013-02-05 05:00:00,
2013-02-05 00:05:00,20.7,19.0,29.90,East,83,0.0,0.0,93,0.00,,,0.00,meteohub,2013-02-05 05:05:00,
2013-02-05 00:11:00,20.7,19.2,29.89,East,83,0.0,0.0,94,0.00,,,0.00,meteohub,2013-02-05 05:11:00,
2013-02-05 00:16:00,20.5,19.0,29.89,East,83,0.0,0.0,94,0.00,,,0.00,meteohub,2013-02-05 05:16:00,
2013-02-05 00:21:00,20.7,19.2,29.89,East,83,0.0,0.0,94,0.00,,,0.00,meteohub,2013-02-05 05:21:00,
2013-02-05 00:26:00,20.7,19.0,29.89,East,83,0.0,0.0,93,0.00,,,0.00,meteohub,2013-02-05 05:26:00,
2013-02-05 00:31:00,20.7,19.0,29.89,East,83,0.0,0.0,93,0.00,,,0.00,meteohub,2013-02-05 05:31:00,
2013-02-05 00:36:00,20.7,19.0,29.88,East,83,0.0,0.0,93,0.00,,,0.00,meteohub,2013-02-05 05:36:00,
2013-02-05 00:41:00,20.7,19.0,29.89,East,83,0.0,0.0,93,0.00,,,0.00,meteohub,2013-02-05 05:41:00,
2013-02-05 00:46:00,20.3,18.7,29.88,East,83,0.0,0.0,93,0.00,,,0.00,meteohub,2013-02-05 05:46:00,
2013-02-05 00:51:00,20.1,18.7,29.88,East,83,3.0,3.0,94,0.00,,,0.00,meteohub,2013-02-05 05:51:00,
2013-02-05 00:56:00,20.3,18.9,29.88,East,83,3.0,3.0,94,0.00,,,0.00,meteohub,2013-02-05 05:56:00,
2013-02-05 01:01:00,20.3,18.9,29.88,East,83,3.0,3.0,94,0.00,,,0.00,meteohub,2013-02-05 06:01:00,
2013-02-05 01:06:00,20.3,18.9,29.88,East,83,4.0,4.0,94,0.00,,,0.00,meteohub,2013-02-05 06:06:00,
2013-02-05 01:12:00,20.3,18.9,29.88,East,82,4.0,4.0,94,0.00,,,0.00,meteohub,2013-02-05 06:12:00,
2013-02-05 01:17:00,20.1,18.7,29.88,East,82,4.0,5.0,94,0.00,,,0.00,meteohub,2013-02-05 06:17:00,
2013-02-05 01:22:00,20.5,19.0,29.88,East,82,4.0,5.0,94,0.00,,,0.00,meteohub,2013-02-05 06:22:00,
2013-02-05 01:27:00,20.1,18.7,29.88,East,82,3.0,5.0,94,0.00,,,0.00,meteohub,2013-02-05 06:27:00,
2013-02-05 01:32:00,20.1,18.7,29.88,East,82,2.0,4.0,94,0.00,,,0.00,meteohub,2013-02-05 06:32:00,
2013-02-05 01:37:00,19.9,18.5,29.89,East,82,4.0,4.0,94,0.00,,,0.00,meteohub,2013-02-05 06:37:00,
2013-02-05 01:42:00,20.1,18.7,29.89,East,82,4.0,4.0,94,0.00,,,0.00,meteohub,2013-02-05 06:42:00,
2013-02-05 01:47:00,20.1,18.7,29.89,East,82,3.0,4.0,94,0.00,,,0.00,meteohub,2013-02-05 06:47:00,
2013-02-05 01:52:00,20.1,18.7,29.89,East,82,3.0,4.0,94,0.00,,,0.00,meteohub,2013-02-05 06:52:00,
2013-02-05 01:57:00,20.1,18.7,29.90,East,82,2.0,4.0,94,0.00,,,0.00,meteohub,2013-02-05 06:57:00,
2013-02-05 02:02:00,20.1,18.9,29.90,East,82,0.0,3.0,95,0.00,,,0.00,meteohub,2013-02-05 07:02:00,
2013-02-05 02:07:00,20.3,19.0,29.90,East,82,0.0,3.0,95,0.00,,,0.00,meteohub,2013-02-05 07:07:00,
2013-02-05 02:12:00,20.5,19.2,29.90,East,82,0.0,3.0,95,0.00,,,0.00,meteohub,2013-02-05 07:12:00,
2013-02-05 02:17:00,20.5,19.2,29.90,East,82,0.0,0.0,95,0.00,,,0.00,meteohub,2013-02-05 07:17:00,
2013-02-05 02:22:00,20.5,19.2,29.90,East,82,0.0,0.0,95,0.00,,,0.00,meteohub,2013-02-05 07:22:00,
2013-02-05 02:27:00,20.5,19.2,29.90,East,82,0.0,0.0,95,0.00,,,0.00,meteohub,2013-02-05 07:27:00,
2013-02-05 02:32:00,20.5,19.2,29.90,East,82,0.0,0.0,95,0.00,,,0.00,meteohub,2013-02-05 07:32:00,
2013-02-05 02:37:00,20.7,19.2,29.90,East,82,0.0,0.0,94,0.00,,,0.00,meteohub,2013-02-05 07:37:00,
2013-02-05 02:42:00,20.7,19.2,29.89,East,82,0.0,0.0,94,0.00,,,0.00,meteohub,2013-02-05 07:42:00,
2013-02-05 02:47:00,20.7,19.2,29.89,East,82,0.0,0.0,94,0.00,,,0.00,meteohub,2013-02-05 07:47:00,
2013-02-05 02:52:00,20.8,19.4,29.89,East,82,0.0,0.0,94,0.00,,,0.00,meteohub,2013-02-05 07:52:00,
2013-02-05 02:57:00,20.8,19.4,29.89,East,82,2.0,2.0,94,0.00,,,0.00,meteohub,2013-02-05 07:57:00,
2013-02-05 03:02:00,20.8,19.4,29.89,East,82,2.0,3.0,94,0.00,,,0.00,meteohub,2013-02-05 08:02:00,
2013-02-05 03:07:00,20.8,19.4,29.89,East,82,1.0,3.0,94,0.00,,,0.00,meteohub,2013-02-05 08:07:00,
2013-02-05 03:12:00,21.0,19.6,29.89,East,82,3.0,4.0,94,0.00,,,0.00,meteohub,2013-02-05 08:12:00,
2013-02-05 03:17:00,21.2,19.8,29.88,East,82,4.0,4.0,94,0.00,,,0.00,meteohub,2013-02-05 08:17:00,
2013-02-05 03:22:00,21.4,19.9,29.88,East,82,3.0,5.0,94,0.00,,,0.00,meteohub,2013-02-05 08:22:00,
2013-02-05 03:27:00,21.6,20.1,29.88,NE,49,12.0,12.0,94,0.00,,,0.00,meteohub,2013-02-05 08:27:00,
2013-02-05 03:32:00,21.7,20.1,29.88,ENE,74,10.0,13.0,93,0.00,,,0.00,meteohub,2013-02-05 08:32:00,
2013-02-05 03:37:00,21.7,20.1,29.88,East,84,10.0,13.0,93,0.00,,,0.00,meteohub,2013-02-05 08:37:00,
2013-02-05 03:42:00,21.6,19.6,29.88,East,87,9.0,13.0,92,0.00,,,0.00,meteohub,2013-02-05 08:42:00,
2013-02-05 03:47:00,21.6,19.6,29.88,ENE,76,9.0,13.0,92,0.00,,,0.00,meteohub,2013-02-05 08:47:00,
2013-02-05 03:52:00,21.6,19.6,29.88,ENE,76,8.0,13.0,92,0.00,,,0.00,meteohub,2013-02-05 08:52:00,
2013-02-05 03:57:00,21.6,19.6,29.88,ENE,63,9.0,13.0,92,0.00,,,0.00,meteohub,2013-02-05 08:57:00,
2013-02-05 04:02:00,21.6,19.6,29.88,ENE,61,10.0,13.0,92,0.00,,,0.00,meteohub,2013-02-05 09:02:00,
2013-02-05 04:07:00,21.4,19.4,29.89,NE,56,14.0,16.0,92,0.00,,,0.00,meteohub,2013-02-05 09:07:00,
2013-02-05 04:12:00,21.2,19.0,29.89,NE,53,14.0,16.0,91,0.00,,,0.00,meteohub,2013-02-05 09:12:00,
2013-02-05 04:17:00,21.2,19.0,29.89,ENE,65,10.0,16.0,91,0.00,,,0.00,meteohub,2013-02-05 09:17:00,
2013-02-05 04:22:00,21.2,18.7,29.90,NE,51,12.0,16.0,90,0.00,,,0.00,meteohub,2013-02-05 09:22:00,
2013-02-05 04:27:00,21.0,18.5,29.90,NE,52,12.0,16.0,90,0.00,,,0.00,meteohub,2013-02-05 09:27:00,
2013-02-05 04:32:00,21.0,18.5,29.90,NE,50,12.0,16.0,90,0.00,,,0.00,meteohub,2013-02-05 09:32:00,
2013-02-05 04:37:00,21.0,18.3,29.90,NE,55,9.0,16.0,89,0.00,,,0.00,meteohub,2013-02-05 09:37:00,
2013-02-05 04:42:00,21.0,18.5,29.91,NE,49,11.0,14.0,90,0.00,,,0.00,meteohub,2013-02-05 09:42:00,
2013-02-05 04:47:00,21.0,18.3,29.91,NE,53,13.0,14.0,89,0.00,,,0.00,meteohub,2013-02-05 09:47:00,
2013-02-05 04:52:00,21.0,18.5,29.91,NE,55,10.0,15.0,90,0.00,,,0.00,meteohub,2013-02-05 09:52:00,
2013-02-05 04:57:00,21.0,18.3,29.91,NE,53,9.0,15.0,89,0.00,,,0.00,meteohub,2013-02-05 09:57:00,
2013-02-05 05:02:00,20.8,18.3,29.91,NE,55,7.0,15.0,90,0.00,,,0.00,meteohub,2013-02-05 10:02:00,
2013-02-05 05:07:00,20.8,18.3,29.91,NE,56,9.0,13.0,90,0.00,,,0.00,meteohub,2013-02-05 10:07:00,
2013-02-05 05:12:00,20.8,18.3,29.91,NE,50,6.0,12.0,90,0.00,,,0.00,meteohub,2013-02-05 10:12:00,
2013-02-05 05:17:00,20.8,18.3,29.91,NE,50,7.0,12.0,90,0.00,,,0.00,meteohub,2013-02-05 10:17:00,
2013-02-05 05:22:00,20.8,18.3,29.91,NE,51,8.0,11.0,90,0.00,,,0.00,meteohub,2013-02-05 10:22:00,
2013-02-05 05:27:00,20.8,18.3,29.91,NE,53,6.0,9.0,90,0.00,,,0.00,meteohub,2013-02-05 10:27:00,
2013-02-05 05:32:00,20.8,18.3,29.91,ENE,60,9.0,10.0,90,0.00,,,0.00,meteohub,2013-02-05 10:32:00,
2013-02-05 05:37:00,20.8,18.3,29.91,NE,52,7.0,10.0,90,0.00,,,0.00,meteohub,2013-02-05 10:37:00,
2013-02-05 05:42:00,20.8,18.3,29.90,NE,56,7.0,11.0,90,0.00,,,0.00,meteohub,2013-02-05 10:42:00,
2013-02-05 05:47:00,21.0,18.5,29.90,ENE,59,6.0,11.0,90,0.00,,,0.00,meteohub,2013-02-05 10:47:00,
2013-02-05 05:52:00,21.0,18.5,29.91,ENE,63,6.0,11.0,90,0.00,,,0.00,meteohub,2013-02-05 10:52:00,
2013-02-05 05:57:00,21.0,18.5,29.90,ENE,57,9.0,11.0,90,0.00,,,0.00,meteohub,2013-02-05 10:57:00,
2013-02-05 06:02:00,21.0,18.5,29.90,NE,50,6.0,10.0,90,0.00,,,0.00,meteohub,2013-02-05 11:02:00,
2013-02-05 06:07:00,21.2,18.7,29.90,NE,56,5.0,10.0,90,0.00,,,0.00,meteohub,2013-02-05 11:07:00,
2013-02-05 06:12:00,21.4,18.9,29.90,East,97,5.0,10.0,90,0.00,,,0.00,meteohub,2013-02-05 11:12:00,
2013-02-05 06:17:00,21.4,18.9,29.90,East,101,5.0,8.0,90,0.00,,,0.00,meteohub,2013-02-05 11:17:00,
2013-02-05 06:22:00,21.4,18.9,29.90,East,89,6.0,9.0,90,0.00,,,0.00,meteohub,2013-02-05 11:22:00,
2013-02-05 06:27:00,21.4,18.9,29.89,East,92,3.0,9.0,90,0.00,,,0.00,meteohub,2013-02-05 11:27:00,
2013-02-05 06:32:00,21.4,18.9,29.89,East,88,4.0,7.0,90,0.00,,,0.00,meteohub,2013-02-05 11:32:00,
2013-02-05 06:37:00,21.4,18.9,29.90,East,94,6.0,9.0,90,0.00,,,0.00,meteohub,2013-02-05 11:37:00,
2013-02-05 06:42:00,21.4,18.9,29.90,East,87,4.0,9.0,90,0.00,,,0.00,meteohub,2013-02-05 11:42:00,
2013-02-05 06:47:00,21.4,18.9,29.90,East,90,6.0,9.0,90,0.00,,,0.00,meteohub,2013-02-05 11:47:00,
2013-02-05 06:52:00,21.2,18.7,29.90,East,90,3.0,7.0,90,0.00,,,0.00,meteohub,2013-02-05 11:52:00,
2013-02-05 06:57:00,21.2,18.7,29.90,East,90,2.0,7.0,90,0.00,,,0.00,meteohub,2013-02-05 11:57:00,
2013-02-05 07:02:00,21.2,18.7,29.90,East,90,1.0,6.0,90,0.00,,,0.00,meteohub,2013-02-05 12:02:00,
2013-02-05 07:07:00,21.4,18.9,29.90,East,92,1.0,4.0,90,0.00,,,0.00,meteohub,2013-02-05 12:07:00,
2013-02-05 07:12:00,21.4,18.9,29.91,East,92,0.0,3.0,90,0.00,,,0.00,meteohub,2013-02-05 12:12:00,
2013-02-05 07:17:00,21.4,18.7,29.90,East,92,0.0,3.0,89,0.00,,,0.00,meteohub,2013-02-05 12:17:00,
2013-02-05 07:22:00,21.4,18.7,29.91,East,92,0.0,3.0,89,0.00,,,0.00,meteohub,2013-02-05 12:22:00,
2013-02-05 07:27:00,21.4,18.7,29.91,East,92,0.0,0.0,89,0.00,,,0.00,meteohub,2013-02-05 12:27:00,
2013-02-05 07:32:00,21.6,18.9,29.91,East,92,0.0,0.0,89,0.00,,,0.00,meteohub,2013-02-05 12:32:00,
2013-02-05 07:37:00,21.6,19.0,29.91,East,92,0.0,0.0,90,0.00,,,0.00,meteohub,2013-02-05 12:37:00,
2013-02-05 07:42:00,21.6,18.9,29.91,East,92,0.0,0.0,89,0.00,,,0.00,meteohub,2013-02-05 12:42:00,
2013-02-05 07:47:00,21.6,18.9,29.90,East,92,0.0,0.0,89,0.00,,,0.00,meteohub,2013-02-05 12:47:00,
2013-02-05 07:52:00,21.7,19.0,29.90,East,92,0.0,0.0,89,0.00,,,0.00,meteohub,2013-02-05 12:52:00,
2013-02-05 07:57:00,21.7,19.0,29.90,East,92,0.0,0.0,89,0.00,,,0.00,meteohub,2013-02-05 12:57:00,
2013-02-05 08:02:00,21.7,19.0,29.90,East,92,0.0,0.0,89,0.00,,,0.00,meteohub,2013-02-05 13:02:00,
2013-02-05 08:07:00,21.7,19.0,29.90,East,92,0.0,0.0,89,0.00,,,0.00,meteohub,2013-02-05 13:07:00,
2013-02-05 08:12:00,21.7,19.0,29.89,East,92,0.0,0.0,89,0.00,,,0.00,meteohub,2013-02-05 13:12:00,
2013-02-05 08:17:00,21.7,19.0,29.90,East,92,0.0,0.0,89,0.00,,,0.00,meteohub,2013-02-05 13:17:00,
2013-02-05 08:22:00,21.9,19.2,29.90,East,92,0.0,0.0,89,0.00,,,0.00,meteohub,2013-02-05 13:22:00,
2013-02-05 08:27:00,21.7,19.0,29.90,East,92,0.0,0.0,89,0.00,,,0.00,meteohub,2013-02-05 13:27:00,
2013-02-05 08:32:00,21.7,19.0,29.90,East,93,2.0,0.0,89,0.00,,,0.00,meteohub,2013-02-05 13:32:00,
2013-02-05 08:37:00,21.7,19.0,29.90,East,93,0.0,4.0,89,0.00,,,0.00,meteohub,2013-02-05 13:37:00,
2013-02-05 08:42:00,21.7,19.2,29.90,East,93,0.0,4.0,90,0.00,,,0.00,meteohub,2013-02-05 13:42:00,
2013-02-05 08:47:00,21.7,19.2,29.90,ESE,113,1.0,4.0,90,0.00,,,0.00,meteohub,2013-02-05 13:47:00,
2013-02-05 08:52:00,21.7,19.0,29.90,ESE,113,1.0,3.0,89,0.00,,,0.00,meteohub,2013-02-05 13:52:00,
2013-02-05 08:57:00,21.7,19.0,29.90,ESE,113,0.0,3.0,89,0.00,,,0.00,meteohub,2013-02-05 13:57:00,
2013-02-05 09:02:00,21.9,19.4,29.91,ESE,113,0.0,3.0,90,0.00,,,0.00,meteohub,2013-02-05 14:02:00,
2013-02-05 09:07:00,22.8,20.1,29.91,ESE,113,0.0,2.0,89,0.00,,,0.00,meteohub,2013-02-05 14:07:00,
2013-02-05 09:12:00,23.4,20.7,29.91,ESE,113,0.0,0.0,89,0.00,,,0.00,meteohub,2013-02-05 14:12:00,
2013-02-05 09:17:00,23.2,20.1,29.91,ESE,113,0.0,0.0,88,0.00,,,0.00,meteohub,2013-02-05 14:17:00,
2013-02-05 09:22:00,22.6,19.4,29.91,ESE,113,0.0,0.0,87,0.00,,,0.00,meteohub,2013-02-05 14:22:00,
2013-02-05 09:27:00,21.9,18.9,29.91,ESE,113,0.0,0.0,88,0.00,,,0.00,meteohub,2013-02-05 14:27:00,
2013-02-05 09:32:00,21.6,18.5,29.90,ESE,113,0.0,0.0,88,0.00,,,0.00,meteohub,2013-02-05 14:32:00,
2013-02-05 09:37:00,21.4,18.3,29.91,ESE,113,0.0,0.0,88,0.00,,,0.00,meteohub,2013-02-05 14:37:00,
2013-02-05 09:42:00,21.9,18.9,29.91,ESE,113,0.0,0.0,88,0.00,,,0.00,meteohub,2013-02-05 14:42:00,
2013-02-05 09:47:00,21.7,18.5,29.90,ESE,113,0.0,0.0,87,0.00,,,0.00,meteohub,2013-02-05 14:47:00,
2013-02-05 09:52:00,20.5,17.4,29.90,ESE,113,0.0,0.0,88,0.00,,,0.00,meteohub,2013-02-05 14:52:00,
2013-02-05 09:57:00,20.7,18.0,29.90,ESE,113,0.0,0.0,89,0.00,,,0.00,meteohub,2013-02-05 14:57:00,
2013-02-05 10:02:00,21.0,18.3,29.90,ESE,113,0.0,0.0,89,0.00,,,0.00,meteohub,2013-02-05 15:02:00,
2013-02-05 10:07:00,21.6,19.0,29.91,ESE,113,0.0,0.0,90,0.00,,,0.00,meteohub,2013-02-05 15:07:00,
2013-02-05 10:12:00,21.4,18.7,29.91,ESE,113,0.0,0.0,89,0.00,,,0.00,meteohub,2013-02-05 15:12:00,
2013-02-05 10:17:00,21.7,19.0,29.91,ESE,113,0.0,0.0,89,0.00,,,0.00,meteohub,2013-02-05 15:17:00,
2013-02-05 10:22:00,23.5,20.8,29.91,ESE,113,0.0,0.0,89,0.00,,,0.00,meteohub,2013-02-05 15:22:00,
2013-02-05 10:27:00,25.3,22.1,29.91,ESE,113,0.0,0.0,87,0.00,,,0.00,meteohub,2013-02-05 15:27:00,
2013-02-05 10:32:00,25.2,21.0,29.90,ESE,113,0.0,0.0,84,0.00,,,0.00,meteohub,2013-02-05 15:32:00,
2013-02-05 10:37:00,24.3,20.1,29.90,ESE,113,0.0,0.0,84,0.00,,,0.00,meteohub,2013-02-05 15:37:00,
2013-02-05 10:42:00,23.5,19.8,29.90,ESE,113,0.0,0.0,85,0.00,,,0.00,meteohub,2013-02-05 15:42:00,
2013-02-05 10:47:00,24.1,20.5,29.90,ESE,113,0.0,0.0,86,0.00,,,0.00,meteohub,2013-02-05 15:47:00,
2013-02-05 10:52:00,25.0,21.2,29.90,ESE,113,0.0,0.0,85,0.00,,,0.00,meteohub,2013-02-05 15:52:00,
2013-02-05 10:57:00,25.5,21.4,29.90,ESE,113,0.0,0.0,84,0.00,,,0.00,meteohub,2013-02-05 15:57:00,
2013-02-05 11:02:00,27.0,22.5,29.90,ESE,113,0.0,0.0,83,0.00,,,0.00,meteohub,2013-02-05 16:02:00,
2013-02-05 11:07:00,27.1,22.1,29.90,ESE,113,0.0,0.0,81,0.01,,,0.01,meteohub,2013-02-05 16:07:00,
2013-02-05 11:12:00,25.5,20.5,29.90,ESE,113,0.0,0.0,81,0.01,,,0.01,meteohub,2013-02-05 16:12:00,
2013-02-05 11:17:00,23.7,19.4,29.90,ESE,113,0.0,0.0,83,0.01,,,0.01,meteohub,2013-02-05 16:17:00,
2013-02-05 11:22:00,23.2,19.6,29.90,ESE,113,3.0,3.0,86,0.01,,,0.01,meteohub,2013-02-05 16:22:00,
2013-02-05 11:27:00,22.8,19.6,29.90,ESE,115,3.0,3.0,87,0.01,,,0.01,meteohub,2013-02-05 16:27:00,
2013-02-05 11:32:00,22.8,19.8,29.89,ESE,116,2.0,4.0,88,0.01,,,0.01,meteohub,2013-02-05 16:32:00,
2013-02-05 11:37:00,22.8,19.8,29.89,SW,235,2.0,4.0,88,0.01,,,0.01,meteohub,2013-02-05 16:37:00,
2013-02-05 11:42:00,22.6,19.6,29.88,SW,235,1.0,4.0,88,0.01,,,0.01,meteohub,2013-02-05 16:42:00,
2013-02-05 11:47:00,22.8,19.8,29.89,WNW,288,7.0,7.0,88,0.01,,,0.01,meteohub,2013-02-05 16:47:00,
2013-02-05 11:52:00,23.0,19.9,29.89,WNW,295,6.0,8.0,88,0.01,,,0.01,meteohub,2013-02-05 16:52:00,
2013-02-05 11:57:00,23.2,20.1,29.88,WNW,296,6.0,10.0,88,0.01,,,0.01,meteohub,2013-02-05 16:57:00,
2013-02-05 12:02:00,23.2,20.1,29.88,WNW,299,7.0,10.0,88,0.00,,,0.01,meteohub,2013-02-05 17:02:00,
2013-02-05 12:07:00,23.4,20.7,29.89,NW,304,6.0,10.0,89,0.00,,,0.01,meteohub,2013-02-05 17:07:00,
2013-02-05 12:12:00,23.4,20.7,29.89,WNW,293,6.0,10.0,89,0.00,,,0.01,meteohub,2013-02-05 17:12:00,
2013-02-05 12:17:00,23.4,20.3,29.89,WNW,287,7.0,10.0,88,0.00,,,0.01,meteohub,2013-02-05 17:17:00,
2013-02-05 12:22:00,23.4,20.3,29.89,WNW,286,5.0,11.0,88,0.00,,,0.01,meteohub,2013-02-05 17:22:00,
2013-02-05 12:27:00,23.5,20.5,29.88,WNW,286,4.0,11.0,88,0.00,,,0.01,meteohub,2013-02-05 17:27:00,
2013-02-05 12:32:00,23.7,20.7,29.88,WNW,286,4.0,11.0,88,0.00,,,0.01,meteohub,2013-02-05 17:32:00,
2013-02-05 12:37:00,23.7,20.5,29.87,WNW,288,4.0,7.0,87,0.00,,,0.01,meteohub,2013-02-05 17:37:00,
2013-02-05 12:42:00,23.7,20.5,29.87,WNW,289,5.0,6.0,87,0.00,,,0.01,meteohub,2013-02-05 17:42:00,
2013-02-05 12:47:00,23.9,20.3,29.87,WNW,289,6.0,7.0,86,0.00,,,0.01,meteohub,2013-02-05 17:47:00,
2013-02-05 12:52:00,23.9,20.1,29.86,WNW,289,5.0,7.0,85,0.00,,,0.01,meteohub,2013-02-05 17:52:00,
2013-02-05 12:57:00,24.1,20.3,29.86,WNW,292,4.0,7.0,85,0.00,,,0.01,meteohub,2013-02-05 17:57:00,
2013-02-05 13:02:00,24.1,20.3,29.86,WNW,292,5.0,7.0,85,0.00,,,0.01,meteohub,2013-02-05 18:02:00,
2013-02-05 13:07:00,24.1,19.9,29.85,WNW,297,6.0,7.0,84,0.00,,,0.01,meteohub,2013-02-05 18:07:00,
2013-02-05 13:12:00,24.1,19.9,29.85,WNW,296,5.0,7.0,84,0.00,,,0.01,meteohub,2013-02-05 18:12:00,
2013-02-05 13:17:00,24.1,19.8,29.85,WNW,296,5.0,7.0,83,0.00,,,0.01,meteohub,2013-02-05 18:17:00,
2013-02-05 13:22:00,24.1,19.8,29.85,WNW,296,6.0,7.0,83,0.00,,,0.01,meteohub,2013-02-05 18:22:00,
2013-02-05 13:27:00,24.1,19.8,29.84,WNW,296,3.0,7.0,83,0.00,,,0.01,meteohub,2013-02-05 18:27:00,
2013-02-05 13:32:00,24.1,19.8,29.84,WNW,295,5.0,7.0,83,0.00,,,0.01,meteohub,2013-02-05 18:32:00,
2013-02-05 13:38:00,24.3,20.1,29.84,WNW,295,6.0,7.0,84,0.00,,,0.01,meteohub,2013-02-05 18:38:00,
2013-02-05 13:43:00,24.3,20.5,29.84,WNW,295,4.0,6.0,85,0.00,,,0.01,meteohub,2013-02-05 18:43:00,
2013-02-05 13:48:00,24.3,20.5,29.84,WNW,295,3.0,6.0,85,0.00,,,0.01,meteohub,2013-02-05 18:48:00,
2013-02-05 13:53:00,24.3,20.5,29.84,WNW,296,5.0,6.0,85,0.00,,,0.01,meteohub,2013-02-05 18:53:00,
2013-02-05 13:58:00,24.3,20.5,29.84,WNW,298,5.0,6.0,85,0.00,,,0.01,meteohub,2013-02-05 18:58:00,
2013-02-05 14:03:00,24.3,20.5,29.83,WNW,298,2.0,6.0,85,0.00,,,0.01,meteohub,2013-02-05 19:03:00,
2013-02-05 14:08:00,24.3,20.5,29.83,WNW,298,4.0,6.0,85,0.00,,,0.01,meteohub,2013-02-05 19:08:00,
2013-02-05 14:13:00,24.3,20.5,29.83,WNW,299,4.0,6.0,85,0.00,,,0.01,meteohub,2013-02-05 19:13:00,
2013-02-05 14:18:00,24.3,20.5,29.83,WNW,300,1.0,6.0,85,0.00,,,0.01,meteohub,2013-02-05 19:18:00,
2013-02-05 14:23:00,24.3,20.5,29.83,WNW,299,4.0,6.0,85,0.00,,,0.01,meteohub,2013-02-05 19:23:00,
2013-02-05 14:28:00,24.4,20.7,29.83,WNW,299,2.0,6.0,85,0.00,,,0.01,meteohub,2013-02-05 19:28:00,
2013-02-05 14:33:00,24.4,20.7,29.83,WNW,299,1.0,5.0,85,0.00,,,0.01,meteohub,2013-02-05 19:33:00,
2013-02-05 14:38:00,24.4,20.7,29.83,WNW,299,1.0,5.0,85,0.00,,,0.01,meteohub,2013-02-05 19:38:00,
2013-02-05 14:43:00,24.4,20.7,29.83,WNW,299,5.0,5.0,85,0.00,,,0.01,meteohub,2013-02-05 19:43:00,
2013-02-05 14:48:00,24.3,20.5,29.83,WNW,298,4.0,6.0,85,0.00,,,0.01,meteohub,2013-02-05 19:48:00,
2013-02-05 14:53:00,24.3,20.7,29.83,WNW,298,3.0,6.0,86,0.00,,,0.01,meteohub,2013-02-05 19:53:00,
2013-02-05 14:58:00,24.4,20.8,29.83,WNW,298,1.0,6.0,86,0.00,,,0.01,meteohub,2013-02-05 19:58:00,
2013-02-05 15:03:00,24.6,21.0,29.83,WNW,298,1.0,5.0,86,0.00,,,0.01,meteohub,2013-02-05 20:03:00,
2013-02-05 15:09:00,24.8,21.2,29.83,WNW,298,1.0,4.0,86,0.00,,,0.01,meteohub,2013-02-05 20:09:00,
2013-02-05 15:14:00,25.0,21.4,29.83,WNW,298,1.0,2.0,86,0.00,,,0.01,meteohub,2013-02-05 20:14:00,
2013-02-05 15:19:00,25.2,21.6,29.83,WNW,298,1.0,2.0,86,0.00,,,0.01,meteohub,2013-02-05 20:19:00,
2013-02-05 15:24:00,25.2,21.4,29.83,WNW,298,4.0,4.0,85,0.00,,,0.01,meteohub,2013-02-05 20:24:00,
2013-02-05 15:29:00,25.0,21.2,29.83,WNW,298,3.0,3.0,85,0.00,,,0.01,meteohub,2013-02-05 20:29:00,
2013-02-05 15:34:00,24.8,21.0,29.84,WNW,298,5.0,5.0,85,0.00,,,0.01,meteohub,2013-02-05 20:34:00,
2013-02-05 15:39:00,24.8,21.2,29.84,WNW,298,4.0,6.0,86,0.00,,,0.01,meteohub,2013-02-05 20:39:00,
2013-02-05 15:44:00,24.6,21.0,29.84,WNW,298,4.0,6.0,86,0.00,,,0.01,meteohub,2013-02-05 20:44:00,
2013-02-05 15:49:00,24.4,20.8,29.84,WNW,298,4.0,6.0,86,0.00,,,0.01,meteohub,2013-02-05 20:49:00,
2013-02-05 15:54:00,24.3,21.0,29.85,WNW,298,4.0,6.0,87,0.00,,,0.01,meteohub,2013-02-05 20:54:00,
2013-02-05 15:59:00,24.3,21.0,29.84,WNW,298,1.0,6.0,87,0.00,,,0.01,meteohub,2013-02-05 20:59:00,
2013-02-05 16:04:00,24.4,21.2,29.84,WNW,298,0.0,5.0,87,0.00,,,0.01,meteohub,2013-02-05 21:04:00,
2013-02-05 16:09:00,24.6,21.4,29.84,WNW,298,0.0,5.0,87,0.00,,,0.01,meteohub,2013-02-05 21:09:00,
2013-02-05 16:14:00,25.2,21.9,29.83,WNW,298,0.0,4.0,87,0.00,,,0.01,meteohub,2013-02-05 21:14:00,
2013-02-05 16:20:00,25.9,22.3,29.83,WNW,298,0.0,1.0,86,0.00,,,0.01,meteohub,2013-02-05 21:20:00,
2013-02-05 16:25:00,26.2,22.3,29.83,WNW,298,0.0,1.0,85,0.00,,,0.01,meteohub,2013-02-05 21:25:00,
2013-02-05 16:30:00,25.5,21.4,29.83,WNW,298,0.0,0.0,84,0.00,,,0.01,meteohub,2013-02-05 21:30:00,
2013-02-05 16:35:00,24.8,21.0,29.83,WNW,298,0.0,0.0,85,0.00,,,0.01,meteohub,2013-02-05 21:35:00,
2013-02-05 16:40:00,25.0,21.2,29.83,WNW,298,0.0,0.0,85,0.00,,,0.01,meteohub,2013-02-05 21:40:00,
2013-02-05 16:45:00,24.6,20.8,29.84,WNW,298,2.0,0.0,85,0.00,,,0.01,meteohub,2013-02-05 21:45:00,
2013-02-05 16:50:00,24.3,20.5,29.84,WNW,298,1.0,2.0,85,0.00,,,0.01,meteohub,2013-02-05 21:50:00,
2013-02-05 16:55:00,24.3,20.5,29.84,WNW,298,1.0,2.0,85,0.00,,,0.01,meteohub,2013-02-05 21:55:00,
2013-02-05 17:00:00,24.1,20.3,29.84,WNW,298,0.0,2.0,85,0.00,,,0.01,meteohub,2013-02-05 22:00:00,
2013-02-05 17:05:00,23.9,20.1,29.85,WNW,298,1.0,2.0,85,0.00,,,0.01,meteohub,2013-02-05 22:05:00,
2013-02-05 17:10:00,23.4,19.8,29.85,WNW,298,1.0,2.0,86,0.00,,,0.01,meteohub,2013-02-05 22:10:00,
2013-02-05 17:16:00,23.4,19.8,29.84,WNW,298,0.0,1.0,86,0.00,,,0.01,meteohub,2013-02-05 22:16:00,
2013-02-05 17:21:00,23.4,20.1,29.85,WNW,298,0.0,1.0,87,0.00,,,0.01,meteohub,2013-02-05 22:21:00,
2013-02-05 17:26:00,23.4,20.1,29.85,WNW,298,0.0,1.0,87,0.00,,,0.01,meteohub,2013-02-05 22:26:00,
2013-02-05 17:31:00,23.2,20.1,29.85,WNW,298,1.0,1.0,88,0.00,,,0.01,meteohub,2013-02-05 22:31:00,
2013-02-05 17:36:00,23.2,20.1,29.86,WNW,298,2.0,2.0,88,0.00,,,0.01,meteohub,2013-02-05 22:36:00,
2013-02-05 17:41:00,23.0,20.3,29.86,WNW,298,4.0,4.0,89,0.00,,,0.01,meteohub,2013-02-05 22:41:00,
2013-02-05 17:46:00,23.2,20.5,29.86,WNW,298,5.0,6.0,89,0.00,,,0.01,meteohub,2013-02-05 22:46:00,
2013-02-05 17:51:00,23.0,20.5,29.86,WNW,298,5.0,6.0,90,0.00,,,0.01,meteohub,2013-02-05 22:51:00,
2013-02-05 17:56:00,23.2,20.7,29.86,West,281,7.0,7.0,90,0.00,,,0.01,meteohub,2013-02-05 22:56:00,
2013-02-05 18:01:00,23.2,20.7,29.86,West,271,5.0,7.0,90,0.00,,,0.01,meteohub,2013-02-05 23:01:00,
2013-02-05 18:06:00,23.2,20.7,29.86,West,268,6.0,7.0,90,0.00,,,0.01,meteohub,2013-02-05 23:06:00,
2013-02-05 18:11:00,23.4,20.7,29.86,West,259,6.0,7.0,89,0.00,,,0.01,meteohub,2013-02-05 23:11:00,
2013-02-05 18:16:00,23.5,20.8,29.86,West,260,6.0,7.0,89,0.00,,,0.01,meteohub,2013-02-05 23:16:00,
2013-02-05 18:21:00,23.9,21.2,29.86,West,270,4.0,9.0,89,0.00,,,0.01,meteohub,2013-02-05 23:21:00,
2013-02-05 18:26:00,24.1,21.4,29.86,WSW,253,7.0,9.0,89,0.00,,,0.01,meteohub,2013-02-05 23:26:00,
2013-02-05 18:31:00,24.3,21.6,29.86,WSW,253,5.0,9.0,89,0.00,,,0.01,meteohub,2013-02-05 23:31:00,
2013-02-05 18:37:00,24.4,21.7,29.86,WSW,253,6.0,9.0,89,0.00,,,0.01,meteohub,2013-02-05 23:37:00,
2013-02-05 18:42:00,24.6,21.9,29.86,WSW,257,7.0,9.0,89,0.00,,,0.01,meteohub,2013-02-05 23:42:00,
2013-02-05 18:47:00,24.6,21.9,29.86,WSW,256,5.0,9.0,89,0.00,,,0.01,meteohub,2013-02-05 23:47:00,
2013-02-05 18:52:00,24.6,21.6,29.86,WSW,239,8.0,9.0,88,0.00,,,0.01,meteohub,2013-02-05 23:52:00,
2013-02-05 18:57:00,24.8,21.7,29.86,WSW,242,5.0,9.0,88,0.00,,,0.01,meteohub,2013-02-05 23:57:00,
2013-02-05 19:02:00,25.0,21.9,29.87,WSW,238,6.0,9.0,88,0.00,,,0.01,meteohub,2013-02-06 00:02:00,
2013-02-05 19:07:00,25.2,22.1,29.87,WSW,238,6.0,9.0,88,0.00,,,0.01,meteohub,2013-02-06 00:07:00,
2013-02-05 19:12:00,25.2,22.1,29.87,SW,229,5.0,7.0,88,0.00,,,0.01,meteohub,2013-02-06 00:12:00,
2013-02-05 19:17:00,25.2,22.1,29.87,SSW,212,3.0,7.0,88,0.00,,,0.01,meteohub,2013-02-06 00:17:00,
2013-02-05 19:22:00,25.2,22.1,29.87,SSW,209,6.0,8.0,88,0.00,,,0.01,meteohub,2013-02-06 00:22:00,
2013-02-05 19:27:00,25.2,22.1,29.87,SSW,198,2.0,9.0,88,0.00,,,0.01,meteohub,2013-02-06 00:27:00,
2013-02-05 19:32:00,25.2,22.1,29.87,SSW,198,1.0,9.0,88,0.00,,,0.01,meteohub,2013-02-06 00:32:00,
2013-02-05 19:37:00,25.2,22.1,29.88,SSW,202,1.0,9.0,88,0.00,,,0.01,meteohub,2013-02-06 00:37:00,
2013-02-05 19:42:00,25.2,22.1,29.88,SSW,211,5.0,6.0,88,0.00,,,0.01,meteohub,2013-02-06 00:42:00,
2013-02-05 19:47:00,25.3,22.3,29.88,SW,226,4.0,7.0,88,0.00,,,0.01,meteohub,2013-02-06 00:47:00,
2013-02-05 19:52:00,25.2,22.1,29.88,SW,226,1.0,7.0,88,0.00,,,0.01,meteohub,2013-02-06 00:52:00,
2013-02-05 19:57:00,25.3,22.3,29.88,SW,226,4.0,7.0,88,0.00,,,0.01,meteohub,2013-02-06 00:57:00,
2013-02-05 20:02:00,25.3,22.3,29.88,SW,226,5.0,5.0,88,0.00,,,0.01,meteohub,2013-02-06 01:02:00,
2013-02-05 20:07:00,25.3,22.3,29.88,SW,227,5.0,5.0,88,0.00,,,0.01,meteohub,2013-02-06 01:07:00,
2013-02-05 20:12:00,25.3,22.3,29.89,SW,217,4.0,7.0,88,0.00,,,0.01,meteohub,2013-02-06 01:12:00,
2013-02-05 20:17:00,25.3,22.3,29.88,SSW,208,5.0,7.0,88,0.00,,,0.01,meteohub,2013-02-06 01:17:00,
2013-02-05 20:22:00,25.3,22.3,29.88,SSW,208,7.0,7.0,88,0.00,,,0.01,meteohub,2013-02-06 01:22:00,
2013-02-05 20:27:00,25.3,22.3,29.88,SSW,201,6.0,7.0,88,0.00,,,0.01,meteohub,2013-02-06 01:27:00,
2013-02-05 20:32:00,25.3,22.3,29.88,SSW,199,5.0,10.0,88,0.00,,,0.01,meteohub,2013-02-06 01:32:00,
2013-02-05 20:37:00,25.3,22.3,29.88,SSW,209,5.0,10.0,88,0.00,,,0.01,meteohub,2013-02-06 01:37:00,
2013-02-05 20:42:00,25.5,22.5,29.89,SSW,205,6.0,10.0,88,0.00,,,0.01,meteohub,2013-02-06 01:42:00,
2013-02-05 20:47:00,25.5,22.8,29.88,SSW,213,9.0,9.0,89,0.00,,,0.01,meteohub,2013-02-06 01:47:00,
2013-02-05 20:52:00,25.5,22.8,29.89,SSW,205,5.0,9.0,89,0.00,,,0.01,meteohub,2013-02-06 01:52:00,
2013-02-05 20:57:00,25.5,22.8,29.88,SSW,210,5.0,9.0,89,0.00,,,0.01,meteohub,2013-02-06 01:57:00,
2013-02-05 21:02:00,25.5,22.8,29.89,SSW,212,5.0,10.0,89,0.00,,,0.01,meteohub,2013-02-06 02:02:00,
2013-02-05 21:07:00,25.3,22.8,29.89,SW,227,6.0,11.0,90,0.00,,,0.01,meteohub,2013-02-06 02:07:00,
2013-02-05 21:12:00,25.2,22.8,29.90,SW,223,6.0,11.0,91,0.00,,,0.01,meteohub,2013-02-06 02:12:00,
2013-02-05 21:17:00,25.2,23.2,29.89,SW,223,6.0,11.0,92,0.00,,,0.01,meteohub,2013-02-06 02:17:00,
2013-02-05 21:22:00,25.0,23.2,29.89,SW,227,11.0,12.0,93,0.00,,,0.01,meteohub,2013-02-06 02:22:00,
2013-02-05 21:27:00,25.0,23.2,29.89,SW,217,5.0,12.0,93,0.00,,,0.01,meteohub,2013-02-06 02:27:00,
2013-02-05 21:32:00,25.0,23.5,29.89,SSW,206,10.0,12.0,94,0.00,,,0.01,meteohub,2013-02-06 02:32:00,
2013-02-05 21:37:00,24.8,23.4,29.89,SW,232,6.0,12.0,94,0.00,,,0.01,meteohub,2013-02-06 02:37:00,
2013-02-05 21:42:00,24.8,23.4,29.90,SW,224,6.0,11.0,94,0.00,,,0.01,meteohub,2013-02-06 02:42:00,
2013-02-05 21:47:00,25.0,23.5,29.89,WSW,240,9.0,11.0,94,0.00,,,0.01,meteohub,2013-02-06 02:47:00,
2013-02-05 21:52:00,25.0,23.5,29.90,WSW,238,6.0,11.0,94,0.00,,,0.01,meteohub,2013-02-06 02:52:00,
2013-02-05 21:57:00,25.0,23.7,29.90,SW,234,7.0,13.0,95,0.00,,,0.01,meteohub,2013-02-06 02:57:00,
2013-02-05 22:02:00,24.8,23.5,29.90,WSW,240,10.0,13.0,95,0.00,,,0.01,meteohub,2013-02-06 03:02:00,
2013-02-05 22:07:00,24.6,23.4,29.90,WSW,239,7.0,13.0,95,0.00,,,0.01,meteohub,2013-02-06 03:07:00,
2013-02-05 22:12:00,24.6,23.4,29.89,SW,225,6.0,13.0,95,0.00,,,0.01,meteohub,2013-02-06 03:12:00,
2013-02-05 22:17:00,24.6,23.4,29.89,SW,228,7.0,11.0,95,0.00,,,0.01,meteohub,2013-02-06 03:17:00,
2013-02-05 22:22:00,24.6,23.4,29.89,SW,229,10.0,11.0,95,0.00,,,0.01,meteohub,2013-02-06 03:22:00,
2013-02-05 22:27:00,24.6,23.4,29.90,SW,221,6.0,13.0,95,0.00,,,0.01,meteohub,2013-02-06 03:27:00,
2013-02-05 22:32:00,24.6,23.2,29.89,SW,216,10.0,13.0,94,0.00,,,0.01,meteohub,2013-02-06 03:32:00,
2013-02-05 22:37:00,24.8,23.4,29.89,SW,232,6.0,13.0,94,0.00,,,0.01,meteohub,2013-02-06 03:37:00,
2013-02-05 22:42:00,25.0,23.5,29.89,SW,228,10.0,14.0,94,0.00,,,0.01,meteohub,2013-02-06 03:42:00,
2013-02-05 22:47:00,25.0,23.5,29.89,SSW,213,9.0,14.0,94,0.00,,,0.01,meteohub,2013-02-06 03:47:00,
2013-02-05 22:52:00,25.0,23.2,29.89,SW,229,6.0,14.0,93,0.00,,,0.01,meteohub,2013-02-06 03:52:00,
2013-02-05 22:58:00,25.0,23.2,29.90,SW,227,9.0,12.0,93,0.00,,,0.01,meteohub,2013-02-06 03:58:00,
2013-02-05 23:03:00,25.2,23.4,29.90,SW,234,10.0,12.0,93,0.00,,,0.01,meteohub,2013-02-06 04:03:00,
2013-02-05 23:08:00,25.2,23.4,29.90,WSW,243,12.0,14.0,93,0.00,,,0.01,meteohub,2013-02-06 04:08:00,
2013-02-05 23:13:00,25.2,23.4,29.89,SW,235,11.0,14.0,93,0.00,,,0.01,meteohub,2013-02-06 04:13:00,
2013-02-05 23:18:00,25.2,23.2,29.89,SW,222,13.0,14.0,92,0.00,,,0.01,meteohub,2013-02-06 04:18:00,
2013-02-05 23:23:00,25.3,23.4,29.89,SW,232,13.0,14.0,92,0.00,,,0.01,meteohub,2013-02-06 04:23:00,
2013-02-05 23:28:00,25.3,23.0,29.89,SW,226,11.0,16.0,91,0.00,,,0.01,meteohub,2013-02-06 04:28:00,
2013-02-05 23:33:00,25.3,23.0,29.90,SW,223,7.0,16.0,91,0.00,,,0.01,meteohub,2013-02-06 04:33:00,
2013-02-05 23:38:00,25.3,23.0,29.90,SW,236,10.0,14.0,91,0.00,,,0.01,meteohub,2013-02-06 04:38:00,
2013-02-05 23:43:00,25.5,23.2,29.90,SSW,211,11.0,14.0,91,0.00,,,0.01,meteohub,2013-02-06 04:43:00,
2013-02-05 23:48:00,25.5,23.2,29.89,SW,216,6.0,13.0,91,0.00,,,0.01,meteohub,2013-02-06 04:48:00,
2013-02-05 23:53:00,25.5,23.2,29.89,SW,215,9.0,15.0,91,0.00,,,0.01,meteohub,2013-02-06 04:53:00,
2013-02-05 23:58:00,25.7,23.2,29.89,SW,215,12.0,15.0,90,0.00,,,0.01,meteohub,2013-02-06 04:58:00,